sensor_id;sensor_type;location;lat;lon;timestamp;pressure;altitude;pressure_sealevel;temperature;humidity
3178;BME280;38141;42.666;23.344;2023-04-29T00:00:28;94723.81;;;7.28;100.00
3178;BME280;38141;42.666;23.344;2023-04-29T00:02:55;94723.69;;;7.44;100.00
3178;BME280;38141;42.666;23.344;2023-04-29T00:05:21;94717.84;;;7.38;91.50
3178;BME280;38141;42.666;23.344;2023-04-29T00:07:48;94713.94;;;7.58;83.34
3178;BME280;38141;42.666;23.344;2023-04-29T00:10:15;94706.81;;;7.47;84.06
3178;BME280;38141;42.666;23.344;2023-04-29T00:12:42;94720.41;;;7.54;82.54
3178;BME280;38141;42.666;23.344;2023-04-29T00:15:09;94709.63;;;7.54;82.94
3178;BME280;38141;42.666;23.344;2023-04-29T00:17:37;94703.19;;;7.36;83.49
3178;BME280;38141;42.666;23.344;2023-04-29T00:20:06;94718.31;;;7.44;82.09
3178;BME280;38141;42.666;23.344;2023-04-29T00:22:32;94732.59;;;7.48;83.04
3178;BME280;38141;42.666;23.344;2023-04-29T00:24:59;94728.34;;;7.47;87.78
3178;BME280;38141;42.666;23.344;2023-04-29T00:27:26;94729.19;;;7.51;86.77
3178;BME280;38141;42.666;23.344;2023-04-29T00:29:53;94731.25;;;7.35;94.50
3178;BME280;38141;42.666;23.344;2023-04-29T00:32:19;94733.50;;;7.33;96.00
3178;BME280;38141;42.666;23.344;2023-04-29T00:34:48;94715.69;;;7.02;100.00
3178;BME280;38141;42.666;23.344;2023-04-29T00:37:15;94731.06;;;7.01;100.00
3178;BME280;38141;42.666;23.344;2023-04-29T00:39:41;94735.06;;;6.88;100.00
3178;BME280;38141;42.666;23.344;2023-04-29T00:42:08;94732.16;;;6.78;100.00
3178;BME280;38141;42.666;23.344;2023-04-29T00:44:35;94732.06;;;6.70;100.00
3178;BME280;38141;42.666;23.344;2023-04-29T00:47:02;94724.78;;;6.71;100.00
3178;BME280;38141;42.666;23.344;2023-04-29T00:49:29;94721.91;;;6.83;100.00
3178;BME280;38141;42.666;23.344;2023-04-29T00:51:58;94730.88;;;6.91;100.00
3178;BME280;38141;42.666;23.344;2023-04-29T00:54:25;94725.91;;;6.70;100.00
3178;BME280;38141;42.666;23.344;2023-04-29T00:56:51;94704.25;;;6.40;100.00
3178;BME280;38141;42.666;23.344;2023-04-29T00:59:19;94709.09;;;6.54;100.00
3178;BME280;38141;42.666;23.344;2023-04-29T01:01:47;94685.56;;;6.28;100.00
3178;BME280;38141;42.666;23.344;2023-04-29T01:04:13;94704.03;;;6.30;100.00
3178;BME280;38141;42.666;23.344;2023-04-29T01:06:48;94690.25;;;6.31;100.00
3178;BME280;38141;42.666;23.344;2023-04-29T01:09:28;94692.88;;;6.50;100.00
3178;BME280;38141;42.666;23.344;2023-04-29T01:12:10;94699.41;;;6.49;100.00
3178;BME280;38141;42.666;23.344;2023-04-29T01:14:42;94699.94;;;6.36;100.00
3178;BME280;38141;42.666;23.344;2023-04-29T01:17:17;94675.69;;;6.13;100.00
3178;BME280;38141;42.666;23.344;2023-04-29T01:19:47;94683.38;;;6.14;100.00
3178;BME280;38141;42.666;23.344;2023-04-29T01:22:15;94693.22;;;6.26;100.00
3178;BME280;38141;42.666;23.344;2023-04-29T01:24:45;94676.66;;;6.24;100.00
3178;BME280;38141;42.666;23.344;2023-04-29T01:27:20;94680.56;;;6.07;100.00
3178;BME280;38141;42.666;23.344;2023-04-29T01:29:54;94687.13;;;6.10;100.00
3178;BME280;38141;42.666;23.344;2023-04-29T01:32:30;94687.34;;;6.01;100.00
3178;BME280;38141;42.666;23.344;2023-04-29T01:35:07;94682.78;;;5.86;100.00
3178;BME280;38141;42.666;23.344;2023-04-29T01:37:40;94694.81;;;5.92;100.00
3178;BME280;38141;42.666;23.344;2023-04-29T01:40:19;94688.06;;;5.82;100.00
3178;BME280;38141;42.666;23.344;2023-04-29T01:42:55;94674.22;;;5.61;100.00
3178;BME280;38141;42.666;23.344;2023-04-29T01:45:26;94682.59;;;5.60;100.00
3178;BME280;38141;42.666;23.344;2023-04-29T01:47:54;94675.06;;;5.65;100.00
3178;BME280;38141;42.666;23.344;2023-04-29T01:50:21;94684.03;;;5.73;100.00
3178;BME280;38141;42.666;23.344;2023-04-29T01:52:48;94658.91;;;5.46;100.00
3178;BME280;38141;42.666;23.344;2023-04-29T01:55:16;94684.09;;;5.57;100.00
3178;BME280;38141;42.666;23.344;2023-04-29T01:57:43;94675.19;;;5.53;100.00
3178;BME280;38141;42.666;23.344;2023-04-29T02:00:10;94674.41;;;5.53;100.00
3178;BME280;38141;42.666;23.344;2023-04-29T02:02:37;94674.47;;;5.56;100.00
3178;BME280;38141;42.666;23.344;2023-04-29T02:05:04;94672.91;;;5.55;100.00
3178;BME280;38141;42.666;23.344;2023-04-29T02:07:31;94673.69;;;5.56;100.00
3178;BME280;38141;42.666;23.344;2023-04-29T02:09:58;94678.47;;;5.47;100.00
3178;BME280;38141;42.666;23.344;2023-04-29T02:12:26;94688.03;;;5.44;100.00
3178;BME280;38141;42.666;23.344;2023-04-29T02:14:53;94691.84;;;5.27;100.00
3178;BME280;38141;42.666;23.344;2023-04-29T02:17:20;94683.31;;;5.22;100.00
3178;BME280;38141;42.666;23.344;2023-04-29T02:19:46;94690.91;;;5.35;100.00
3178;BME280;38141;42.666;23.344;2023-04-29T02:22:13;94697.44;;;5.38;100.00
3178;BME280;38141;42.666;23.344;2023-04-29T02:24:40;94677.94;;;5.22;100.00
3178;BME280;38141;42.666;23.344;2023-04-29T02:27:06;94686.13;;;5.29;100.00
3178;BME280;38141;42.666;23.344;2023-04-29T02:29:35;94680.25;;;5.23;100.00
3178;BME280;38141;42.666;23.344;2023-04-29T02:32:02;94684.06;;;5.22;100.00
3178;BME280;38141;42.666;23.344;2023-04-29T02:34:29;94687.19;;;5.24;100.00
3178;BME280;38141;42.666;23.344;2023-04-29T02:36:56;94680.38;;;5.11;100.00
3178;BME280;38141;42.666;23.344;2023-04-29T02:39:23;94681.06;;;5.08;100.00
3178;BME280;38141;42.666;23.344;2023-04-29T02:41:53;94684.59;;;5.12;100.00
3178;BME280;38141;42.666;23.344;2023-04-29T02:44:20;94665.16;;;5.00;100.00
3178;BME280;38141;42.666;23.344;2023-04-29T02:46:48;94679.13;;;5.24;100.00
3178;BME280;38141;42.666;23.344;2023-04-29T02:49:15;94686.06;;;5.25;100.00
3178;BME280;38141;42.666;23.344;2023-04-29T02:51:41;94684.75;;;5.19;100.00
3178;BME280;38141;42.666;23.344;2023-04-29T02:54:08;94665.75;;;4.93;100.00
3178;BME280;38141;42.666;23.344;2023-04-29T02:56:35;94691.09;;;5.11;100.00
3178;BME280;38141;42.666;23.344;2023-04-29T02:59:02;94697.94;;;5.09;100.00
3178;BME280;38141;42.666;23.344;2023-04-29T03:01:29;94694.47;;;5.08;100.00
3178;BME280;38141;42.666;23.344;2023-04-29T03:03:57;94721.50;;;5.19;100.00
3178;BME280;38141;42.666;23.344;2023-04-29T03:06:24;94706.56;;;5.18;100.00
3178;BME280;38141;42.666;23.344;2023-04-29T03:08:52;94709.69;;;5.04;100.00
3178;BME280;38141;42.666;23.344;2023-04-29T03:11:19;94707.00;;;4.88;100.00
3178;BME280;38141;42.666;23.344;2023-04-29T03:13:47;94706.81;;;4.97;100.00
3178;BME280;38141;42.666;23.344;2023-04-29T03:16:14;94706.13;;;5.00;100.00
3178;BME280;38141;42.666;23.344;2023-04-29T03:18:41;94708.81;;;5.00;100.00
3178;BME280;38141;42.666;23.344;2023-04-29T03:21:09;94698.63;;;4.90;100.00
3178;BME280;38141;42.666;23.344;2023-04-29T03:23:36;94683.91;;;4.68;100.00
3178;BME280;38141;42.666;23.344;2023-04-29T03:26:05;94711.94;;;5.02;100.00
3178;BME280;38141;42.666;23.344;2023-04-29T03:28:32;94717.38;;;5.21;100.00
3178;BME280;38141;42.666;23.344;2023-04-29T03:30:59;94719.44;;;5.28;100.00
3178;BME280;38141;42.666;23.344;2023-04-29T03:33:26;94726.69;;;5.27;100.00
3178;BME280;38141;42.666;23.344;2023-04-29T03:35:53;94716.41;;;5.14;100.00
3178;BME280;38141;42.666;23.344;2023-04-29T03:38:21;94743.84;;;5.07;100.00
3178;BME280;38141;42.666;23.344;2023-04-29T03:40:50;94737.19;;;5.17;100.00
3178;BME280;38141;42.666;23.344;2023-04-29T03:43:17;94748.09;;;5.08;100.00
3178;BME280;38141;42.666;23.344;2023-04-29T03:45:44;94746.69;;;4.99;100.00
3178;BME280;38141;42.666;23.344;2023-04-29T03:48:10;94747.03;;;4.97;100.00
3178;BME280;38141;42.666;23.344;2023-04-29T03:50:38;94742.69;;;4.92;100.00
3178;BME280;38141;42.666;23.344;2023-04-29T03:53:05;94721.88;;;5.02;100.00
3178;BME280;38141;42.666;23.344;2023-04-29T03:55:34;94723.53;;;5.22;100.00
3178;BME280;38141;42.666;23.344;2023-04-29T03:58:00;94731.97;;;5.40;100.00
3178;BME280;38141;42.666;23.344;2023-04-29T04:00:28;94725.13;;;5.42;100.00
3178;BME280;38141;42.666;23.344;2023-04-29T04:02:55;94702.75;;;5.34;100.00
3178;BME280;38141;42.666;23.344;2023-04-29T04:05:22;94733.66;;;5.63;100.00
3178;BME280;38141;42.666;23.344;2023-04-29T04:07:50;94722.44;;;5.77;100.00
3178;BME280;38141;42.666;23.344;2023-04-29T04:10:17;94730.31;;;6.01;100.00
3178;BME280;38141;42.666;23.344;2023-04-29T04:12:45;94743.25;;;6.15;100.00
3178;BME280;38141;42.666;23.344;2023-04-29T04:15:12;94736.03;;;6.19;100.00
3178;BME280;38141;42.666;23.344;2023-04-29T04:17:39;94745.78;;;6.27;100.00
3178;BME280;38141;42.666;23.344;2023-04-29T04:20:07;94743.41;;;6.22;100.00
3178;BME280;38141;42.666;23.344;2023-04-29T04:22:33;94741.63;;;6.30;100.00
3178;BME280;38141;42.666;23.344;2023-04-29T04:25:00;94733.34;;;6.38;100.00
3178;BME280;38141;42.666;23.344;2023-04-29T04:27:27;94733.78;;;6.40;100.00
3178;BME280;38141;42.666;23.344;2023-04-29T04:29:55;94739.28;;;6.47;100.00
3178;BME280;38141;42.666;23.344;2023-04-29T04:32:22;94734.56;;;6.83;100.00
3178;BME280;38141;42.666;23.344;2023-04-29T04:34:49;94725.03;;;6.85;100.00
3178;BME280;38141;42.666;23.344;2023-04-29T04:37:16;94730.41;;;6.85;100.00
3178;BME280;38141;42.666;23.344;2023-04-29T04:39:43;94720.25;;;6.98;100.00
3178;BME280;38141;42.666;23.344;2023-04-29T04:42:09;94737.03;;;7.37;100.00
3178;BME280;38141;42.666;23.344;2023-04-29T04:44:37;94744.97;;;7.52;100.00
3178;BME280;38141;42.666;23.344;2023-04-29T04:47:05;94734.69;;;7.58;100.00
3178;BME280;38141;42.666;23.344;2023-04-29T04:49:32;94702.03;;;7.37;100.00
3178;BME280;38141;42.666;23.344;2023-04-29T04:51:58;94748.59;;;7.64;100.00
3178;BME280;38141;42.666;23.344;2023-04-29T04:54:25;94746.34;;;7.95;100.00
3178;BME280;38141;42.666;23.344;2023-04-29T04:56:52;94698.03;;;8.06;100.00
3178;BME280;38141;42.666;23.344;2023-04-29T04:59:19;94731.44;;;8.61;100.00
3178;BME280;38141;42.666;23.344;2023-04-29T05:01:45;94728.09;;;9.08;100.00
3178;BME280;38141;42.666;23.344;2023-04-29T05:04:13;94723.44;;;9.09;100.00
3178;BME280;38141;42.666;23.344;2023-04-29T05:06:40;94725.91;;;9.24;97.99
3178;BME280;38141;42.666;23.344;2023-04-29T05:09:07;94717.28;;;9.52;93.76
3178;BME280;38141;42.666;23.344;2023-04-29T05:11:34;94714.03;;;9.36;88.28
3178;BME280;38141;42.666;23.344;2023-04-29T05:14:01;94723.72;;;9.95;85.55
3178;BME280;38141;42.666;23.344;2023-04-29T05:16:27;94723.97;;;10.38;81.61
3178;BME280;38141;42.666;23.344;2023-04-29T05:18:54;94716.66;;;10.45;76.88
3178;BME280;38141;42.666;23.344;2023-04-29T05:21:22;94710.03;;;10.25;73.78
3178;BME280;38141;42.666;23.344;2023-04-29T05:23:49;94694.28;;;10.55;73.02
3178;BME280;38141;42.666;23.344;2023-04-29T05:26:16;94690.91;;;10.80;71.41
3178;BME280;38141;42.666;23.344;2023-04-29T05:28:42;94696.22;;;10.44;70.41
3178;BME280;38141;42.666;23.344;2023-04-29T05:31:09;94702.16;;;11.03;67.12
3178;BME280;38141;42.666;23.344;2023-04-29T05:33:36;94687.03;;;10.95;66.00
3178;BME280;38141;42.666;23.344;2023-04-29T05:36:03;94678.56;;;11.03;65.05
3178;BME280;38141;42.666;23.344;2023-04-29T05:38:32;94589.63;;;11.05;61.47
3178;BME280;38141;42.666;23.344;2023-04-29T05:40:59;94701.03;;;11.78;60.57
3178;BME280;38141;42.666;23.344;2023-04-29T05:43:25;94709.91;;;11.93;60.05
3178;BME280;38141;42.666;23.344;2023-04-29T05:45:52;94677.63;;;12.37;58.48
3178;BME280;38141;42.666;23.344;2023-04-29T05:48:20;94672.16;;;12.48;57.10
3178;BME280;38141;42.666;23.344;2023-04-29T05:50:46;94694.34;;;12.18;57.68
3178;BME280;38141;42.666;23.344;2023-04-29T05:53:14;94674.03;;;12.62;57.91
3178;BME280;38141;42.666;23.344;2023-04-29T05:55:42;94695.63;;;12.86;55.56
3178;BME280;38141;42.666;23.344;2023-04-29T05:58:10;94710.59;;;14.12;53.14
3178;BME280;38141;42.666;23.344;2023-04-29T06:00:37;94695.56;;;16.22;48.27
3178;BME280;38141;42.666;23.344;2023-04-29T06:03:05;94693.28;;;17.35;46.84
3178;BME280;38141;42.666;23.344;2023-04-29T06:05:32;94706.84;;;18.07;42.90
3178;BME280;38141;42.666;23.344;2023-04-29T06:07:59;94704.44;;;19.62;40.61
3178;BME280;38141;42.666;23.344;2023-04-29T06:10:26;94707.97;;;20.57;38.72
3178;BME280;38141;42.666;23.344;2023-04-29T06:12:54;94698.94;;;21.21;36.90
3178;BME280;38141;42.666;23.344;2023-04-29T06:15:21;94694.19;;;23.80;34.25
3178;BME280;38141;42.666;23.344;2023-04-29T06:17:48;94692.72;;;23.70;32.61
3178;BME280;38141;42.666;23.344;2023-04-29T06:20:15;94687.63;;;24.97;30.77
3178;BME280;38141;42.666;23.344;2023-04-29T06:22:42;94702.41;;;26.17;29.96
3178;BME280;38141;42.666;23.344;2023-04-29T06:25:09;94691.06;;;25.65;30.78
3178;BME280;38141;42.666;23.344;2023-04-29T06:27:36;94701.00;;;24.98;30.92
3178;BME280;38141;42.666;23.344;2023-04-29T06:30:05;94706.13;;;24.91;31.07
3178;BME280;38141;42.666;23.344;2023-04-29T06:32:32;94706.59;;;24.89;29.98
3178;BME280;38141;42.666;23.344;2023-04-29T06:34:59;94703.13;;;23.84;31.65
3178;BME280;38141;42.666;23.344;2023-04-29T06:37:26;94692.50;;;25.60;30.18
3178;BME280;38141;42.666;23.344;2023-04-29T06:39:54;94702.47;;;24.85;30.70
3178;BME280;38141;42.666;23.344;2023-04-29T06:42:20;94703.03;;;24.26;31.46
3178;BME280;38141;42.666;23.344;2023-04-29T06:44:47;94706.59;;;22.74;33.50
3178;BME280;38141;42.666;23.344;2023-04-29T06:47:15;94693.44;;;24.36;31.77
3178;BME280;38141;42.666;23.344;2023-04-29T06:49:42;94694.09;;;23.99;31.26
3178;BME280;38141;42.666;23.344;2023-04-29T06:52:09;94705.78;;;23.10;32.22
3178;BME280;38141;42.666;23.344;2023-04-29T06:54:35;94675.53;;;23.24;32.34
3178;BME280;38141;42.666;23.344;2023-04-29T06:57:02;94696.22;;;24.04;31.18
3178;BME280;38141;42.666;23.344;2023-04-29T06:59:29;94697.75;;;23.39;32.44
3178;BME280;38141;42.666;23.344;2023-04-29T07:01:57;94697.22;;;22.44;33.30
3178;BME280;38141;42.666;23.344;2023-04-29T07:04:25;94691.81;;;21.64;35.16
3178;BME280;38141;42.666;23.344;2023-04-29T07:06:51;94695.84;;;22.67;33.54
3178;BME280;38141;42.666;23.344;2023-04-29T07:09:18;94688.28;;;22.12;34.35
3178;BME280;38141;42.666;23.344;2023-04-29T07:11:45;94701.50;;;20.72;35.78
3178;BME280;38141;42.666;23.344;2023-04-29T07:14:12;94686.34;;;20.12;36.84
3178;BME280;38141;42.666;23.344;2023-04-29T07:16:38;94675.38;;;19.99;37.07
3178;BME280;38141;42.666;23.344;2023-04-29T07:19:05;94692.34;;;19.85;36.86
3178;BME280;38141;42.666;23.344;2023-04-29T07:21:33;94694.09;;;20.26;37.29
3178;BME280;38141;42.666;23.344;2023-04-29T07:24:00;94692.50;;;20.94;35.72
3178;BME280;38141;42.666;23.344;2023-04-29T07:26:29;94681.88;;;20.83;36.05
3178;BME280;38141;42.666;23.344;2023-04-29T07:28:56;94692.63;;;20.47;36.75
3178;BME280;38141;42.666;23.344;2023-04-29T07:31:22;94691.53;;;20.44;36.03
3178;BME280;38141;42.666;23.344;2023-04-29T07:33:49;94697.22;;;20.50;36.34
3178;BME280;38141;42.666;23.344;2023-04-29T07:36:16;94695.06;;;20.66;36.22
3178;BME280;38141;42.666;23.344;2023-04-29T07:38:44;94690.13;;;20.83;36.34
3178;BME280;38141;42.666;23.344;2023-04-29T07:41:11;94683.50;;;20.71;36.50
3178;BME280;38141;42.666;23.344;2023-04-29T07:43:41;94687.41;;;20.61;37.16
3178;BME280;38141;42.666;23.344;2023-04-29T07:46:07;94692.56;;;21.24;36.08
3178;BME280;38141;42.666;23.344;2023-04-29T07:48:36;94685.28;;;20.87;36.52
3178;BME280;38141;42.666;23.344;2023-04-29T07:51:03;94683.75;;;21.39;35.58
3178;BME280;38141;42.666;23.344;2023-04-29T07:53:30;94672.31;;;21.49;35.23
3178;BME280;38141;42.666;23.344;2023-04-29T07:56:19;94665.34;;;21.05;35.73
3178;BME280;38141;42.666;23.344;2023-04-29T07:58:47;94674.97;;;20.22;37.00
3178;BME280;38141;42.666;23.344;2023-04-29T08:01:14;94667.13;;;20.46;36.52
3178;BME280;38141;42.666;23.344;2023-04-29T08:03:41;94664.34;;;20.90;35.60
3178;BME280;38141;42.666;23.344;2023-04-29T08:06:07;94650.13;;;20.60;36.40
3178;BME280;38141;42.666;23.344;2023-04-29T08:08:34;94666.34;;;20.67;36.16
3178;BME280;38141;42.666;23.344;2023-04-29T08:11:03;94671.84;;;20.67;35.63
3178;BME280;38141;42.666;23.344;2023-04-29T08:13:30;94656.34;;;21.35;35.21
3178;BME280;38141;42.666;23.344;2023-04-29T08:15:57;94657.56;;;20.81;35.91
3178;BME280;38141;42.666;23.344;2023-04-29T08:18:24;94661.38;;;20.75;35.77
3178;BME280;38141;42.666;23.344;2023-04-29T08:20:50;94660.16;;;20.54;35.77
3178;BME280;38141;42.666;23.344;2023-04-29T08:23:17;94649.25;;;21.16;35.20
3178;BME280;38141;42.666;23.344;2023-04-29T08:25:44;94641.19;;;21.00;35.21
3178;BME280;38141;42.666;23.344;2023-04-29T08:28:13;94660.78;;;20.36;36.15
3178;BME280;38141;42.666;23.344;2023-04-29T08:30:40;94645.84;;;21.43;34.70
3178;BME280;38141;42.666;23.344;2023-04-29T08:33:07;94647.72;;;22.49;33.20
3178;BME280;38141;42.666;23.344;2023-04-29T08:35:34;94651.34;;;23.85;32.10
3178;BME280;38141;42.666;23.344;2023-04-29T08:38:03;94658.75;;;23.46;30.31
3178;BME280;38141;42.666;23.344;2023-04-29T08:40:33;94651.59;;;23.96;29.35
3178;BME280;38141;42.666;23.344;2023-04-29T08:43:02;94650.56;;;23.10;31.23
3178;BME280;38141;42.666;23.344;2023-04-29T08:45:32;94650.25;;;23.17;30.10
3178;BME280;38141;42.666;23.344;2023-04-29T08:48:01;94642.19;;;22.04;31.85
3178;BME280;38141;42.666;23.344;2023-04-29T08:50:29;94645.47;;;21.71;31.56
3178;BME280;38141;42.666;23.344;2023-04-29T08:52:59;94645.72;;;22.86;30.85
3178;BME280;38141;42.666;23.344;2023-04-29T08:55:25;94640.16;;;23.56;29.64
3178;BME280;38141;42.666;23.344;2023-04-29T08:57:53;94637.75;;;24.29;28.71
3178;BME280;38141;42.666;23.344;2023-04-29T09:00:21;94628.81;;;25.16;27.44
3178;BME280;38141;42.666;23.344;2023-04-29T09:02:52;94629.47;;;25.11;27.70
3178;BME280;38141;42.666;23.344;2023-04-29T09:05:21;94589.66;;;25.93;27.25
3178;BME280;38141;42.666;23.344;2023-04-29T09:07:50;94625.47;;;26.52;26.37
3178;BME280;38141;42.666;23.344;2023-04-29T09:10:17;94618.66;;;26.33;26.06
3178;BME280;38141;42.666;23.344;2023-04-29T09:12:44;94622.34;;;27.48;25.24
3178;BME280;38141;42.666;23.344;2023-04-29T09:15:34;94625.09;;;28.81;23.80
3178;BME280;38141;42.666;23.344;2023-04-29T09:21:25;94606.63;;;25.31;27.48
3178;BME280;38141;42.666;23.344;2023-04-29T09:23:53;94609.31;;;25.26;27.98
3178;BME280;38141;42.666;23.344;2023-04-29T09:26:21;94601.03;;;25.11;27.43
3178;BME280;38141;42.666;23.344;2023-04-29T09:29:05;94612.59;;;23.37;28.66
3178;BME280;38141;42.666;23.344;2023-04-29T09:31:32;94605.59;;;23.18;28.90
3178;BME280;38141;42.666;23.344;2023-04-29T09:33:59;94600.50;;;23.91;29.20
3178;BME280;38141;42.666;23.344;2023-04-29T09:36:37;94601.59;;;25.00;27.61
3178;BME280;38141;42.666;23.344;2023-04-29T09:39:05;94596.34;;;26.68;27.17
3178;BME280;38141;42.666;23.344;2023-04-29T09:41:37;94586.53;;;26.92;26.06
3178;BME280;38141;42.666;23.344;2023-04-29T09:44:05;94590.16;;;27.35;25.65
3178;BME280;38141;42.666;23.344;2023-04-29T09:46:32;94586.88;;;29.09;24.65
3178;BME280;38141;42.666;23.344;2023-04-29T09:48:59;94571.41;;;28.80;24.99
3178;BME280;38141;42.666;23.344;2023-04-29T09:51:26;94587.13;;;27.33;25.41
3178;BME280;38141;42.666;23.344;2023-04-29T09:53:59;94560.00;;;28.02;24.68
3178;BME280;38141;42.666;23.344;2023-04-29T09:56:26;94580.06;;;29.10;24.11
3178;BME280;38141;42.666;23.344;2023-04-29T09:58:55;94553.47;;;27.63;25.00
3178;BME280;38141;42.666;23.344;2023-04-29T10:01:25;94556.81;;;27.72;25.42
3178;BME280;38141;42.666;23.344;2023-04-29T10:03:54;94546.16;;;26.45;26.26
3178;BME280;38141;42.666;23.344;2023-04-29T10:06:23;94542.56;;;25.23;27.74
3178;BME280;38141;42.666;23.344;2023-04-29T10:08:50;94559.88;;;24.60;28.37
3178;BME280;38141;42.666;23.344;2023-04-29T10:11:19;94551.03;;;24.17;28.35
3178;BME280;38141;42.666;23.344;2023-04-29T10:13:47;94550.88;;;23.73;28.56
3178;BME280;38141;42.666;23.344;2023-04-29T10:16:25;94557.94;;;24.80;28.32
3178;BME280;38141;42.666;23.344;2023-04-29T10:18:54;94545.94;;;24.84;28.16
3178;BME280;38141;42.666;23.344;2023-04-29T10:21:26;94547.44;;;24.41;28.25
3178;BME280;38141;42.666;23.344;2023-04-29T10:23:56;94538.13;;;24.53;28.15
3178;BME280;38141;42.666;23.344;2023-04-29T10:26:26;94540.09;;;25.26;27.80
3178;BME280;38141;42.666;23.344;2023-04-29T10:28:54;94529.94;;;24.88;28.05
3178;BME280;38141;42.666;23.344;2023-04-29T10:31:24;94512.41;;;23.13;29.17
3178;BME280;38141;42.666;23.344;2023-04-29T10:33:54;94527.56;;;23.18;28.17
3178;BME280;38141;42.666;23.344;2023-04-29T10:36:22;94533.38;;;23.20;28.55
3178;BME280;38141;42.666;23.344;2023-04-29T10:38:51;94532.59;;;23.76;29.02
3178;BME280;38141;42.666;23.344;2023-04-29T10:41:21;94532.25;;;22.42;30.65
3178;BME280;38141;42.666;23.344;2023-04-29T10:43:50;94536.09;;;22.08;30.68
3178;BME280;38141;42.666;23.344;2023-04-29T10:46:19;94531.50;;;22.33;30.98
3178;BME280;38141;42.666;23.344;2023-04-29T10:48:48;94515.88;;;22.39;30.10
3178;BME280;38141;42.666;23.344;2023-04-29T10:51:27;94522.09;;;22.67;28.55
3178;BME280;38141;42.666;23.344;2023-04-29T10:54:05;94520.66;;;22.20;29.62
3178;BME280;38141;42.666;23.344;2023-04-29T10:56:41;94521.69;;;22.23;30.24
3178;BME280;38141;42.666;23.344;2023-04-29T10:59:19;94517.88;;;22.20;29.92
3178;BME280;38141;42.666;23.344;2023-04-29T11:01:48;94529.63;;;22.99;29.24
3178;BME280;38141;42.666;23.344;2023-04-29T11:04:15;94500.13;;;22.81;30.08
3178;BME280;38141;42.666;23.344;2023-04-29T11:06:47;94516.63;;;22.48;30.78
3178;BME280;38141;42.666;23.344;2023-04-29T11:09:24;94525.06;;;21.90;29.73
3178;BME280;38141;42.666;23.344;2023-04-29T11:11:59;94522.50;;;22.05;29.35
3178;BME280;38141;42.666;23.344;2023-04-29T11:14:31;94512.16;;;22.51;29.99
3178;BME280;38141;42.666;23.344;2023-04-29T11:17:00;94510.75;;;22.55;30.26
3178;BME280;38141;42.666;23.344;2023-04-29T11:19:31;94510.16;;;22.51;29.76
3178;BME280;38141;42.666;23.344;2023-04-29T11:22:23;94495.69;;;22.84;28.29
3178;BME280;38141;42.666;23.344;2023-04-29T11:24:52;94513.94;;;22.72;28.79
3178;BME280;38141;42.666;23.344;2023-04-29T11:27:20;94514.44;;;22.61;28.54
3178;BME280;38141;42.666;23.344;2023-04-29T11:29:51;94520.78;;;21.80;28.81
3178;BME280;38141;42.666;23.344;2023-04-29T11:32:20;94514.91;;;21.23;29.66
3178;BME280;38141;42.666;23.344;2023-04-29T11:34:47;94505.84;;;21.14;29.14
3178;BME280;38141;42.666;23.344;2023-04-29T11:37:19;94502.97;;;20.77;30.25
3178;BME280;38141;42.666;23.344;2023-04-29T11:39:46;94496.47;;;20.31;29.84
3178;BME280;38141;42.666;23.344;2023-04-29T11:42:13;94505.31;;;20.97;29.42
3178;BME280;38141;42.666;23.344;2023-04-29T11:44:44;94507.47;;;20.10;30.31
3178;BME280;38141;42.666;23.344;2023-04-29T11:47:12;94498.44;;;20.31;30.88
3178;BME280;38141;42.666;23.344;2023-04-29T11:49:39;94507.22;;;20.69;30.72
3178;BME280;38141;42.666;23.344;2023-04-29T11:52:07;94502.34;;;21.13;31.04
3178;BME280;38141;42.666;23.344;2023-04-29T11:54:34;94504.19;;;20.85;30.68
3178;BME280;38141;42.666;23.344;2023-04-29T11:57:01;94502.41;;;20.92;30.85
3178;BME280;38141;42.666;23.344;2023-04-29T11:59:30;94502.78;;;20.19;31.92
3178;BME280;38141;42.666;23.344;2023-04-29T12:01:57;94506.31;;;20.20;32.31
3178;BME280;38141;42.666;23.344;2023-04-29T12:04:26;94491.41;;;20.08;32.64
3178;BME280;38141;42.666;23.344;2023-04-29T12:06:55;94505.69;;;20.16;33.01
3178;BME280;38141;42.666;23.344;2023-04-29T12:09:23;94493.88;;;19.84;33.42
3178;BME280;38141;42.666;23.344;2023-04-29T12:11:49;94501.53;;;19.89;33.33
3178;BME280;38141;42.666;23.344;2023-04-29T12:14:16;94492.84;;;19.91;33.56
3178;BME280;38141;42.666;23.344;2023-04-29T12:16:44;94501.91;;;19.57;34.46
3178;BME280;38141;42.666;23.344;2023-04-29T12:19:11;94504.38;;;19.86;33.40
3178;BME280;38141;42.666;23.344;2023-04-29T12:21:48;94493.44;;;20.08;32.95
3178;BME280;38141;42.666;23.344;2023-04-29T12:24:16;94489.47;;;20.30;33.48
3178;BME280;38141;42.666;23.344;2023-04-29T12:26:44;94467.59;;;20.05;34.20
3178;BME280;38141;42.666;23.344;2023-04-29T12:29:12;94484.34;;;19.42;35.99
3178;BME280;38141;42.666;23.344;2023-04-29T12:31:39;94484.94;;;19.93;35.65
3178;BME280;38141;42.666;23.344;2023-04-29T12:34:06;94481.53;;;19.67;35.73
3178;BME280;38141;42.666;23.344;2023-04-29T12:36:33;94471.19;;;19.93;35.33
3178;BME280;38141;42.666;23.344;2023-04-29T12:39:04;94467.22;;;19.72;35.60
3178;BME280;38141;42.666;23.344;2023-04-29T12:41:38;94479.19;;;19.78;35.55
3178;BME280;38141;42.666;23.344;2023-04-29T12:44:06;94466.72;;;19.65;35.57
3178;BME280;38141;42.666;23.344;2023-04-29T12:46:36;94454.53;;;19.66;35.65
3178;BME280;38141;42.666;23.344;2023-04-29T12:49:04;94443.09;;;19.89;34.98
3178;BME280;38141;42.666;23.344;2023-04-29T12:51:32;94475.84;;;20.05;35.16
3178;BME280;38141;42.666;23.344;2023-04-29T12:53:59;94470.75;;;20.16;35.07
3178;BME280;38141;42.666;23.344;2023-04-29T12:56:29;94470.78;;;20.25;35.26
3178;BME280;38141;42.666;23.344;2023-04-29T12:58:56;94448.94;;;20.44;35.26
3178;BME280;38141;42.666;23.344;2023-04-29T13:01:23;94463.19;;;20.60;35.18
3178;BME280;38141;42.666;23.344;2023-04-29T13:03:50;94459.47;;;20.54;35.35
3178;BME280;38141;42.666;23.344;2023-04-29T13:06:17;94465.16;;;20.29;35.76
3178;BME280;38141;42.666;23.344;2023-04-29T13:08:44;94464.91;;;20.14;35.83